sensor_id;sensor_type;location;lat;lon;timestamp;temperature;humidity
1988;DHT22;12775;46.994;15.498;2022-09-13T00:02:05;17.80;91.20
1988;DHT22;12775;46.994;15.498;2022-09-13T00:04:32;17.80;91.10
1988;DHT22;12775;46.994;15.498;2022-09-13T00:06:59;17.80;91.00
1988;DHT22;12775;46.994;15.498;2022-09-13T00:09:27;17.80;90.90
1988;DHT22;12775;46.994;15.498;2022-09-13T00:11:54;17.70;90.90
1988;DHT22;12775;46.994;15.498;2022-09-13T00:14:22;17.80;91.20
1988;DHT22;12775;46.994;15.498;2022-09-13T00:16:49;17.70;91.40
1988;DHT22;12775;46.994;15.498;2022-09-13T00:19:16;17.70;91.20
1988;DHT22;12775;46.994;15.498;2022-09-13T00:21:44;17.70;91.40
1988;DHT22;12775;46.994;15.498;2022-09-13T00:24:11;17.60;91.20
1988;DHT22;12775;46.994;15.498;2022-09-13T00:26:38;17.60;91.20
1988;DHT22;12775;46.994;15.498;2022-09-13T00:29:06;17.60;91.30
1988;DHT22;12775;46.994;15.498;2022-09-13T00:31:33;17.60;91.20
1988;DHT22;12775;46.994;15.498;2022-09-13T00:34:01;17.50;91.00
1988;DHT22;12775;46.994;15.498;2022-09-13T00:36:28;17.50;91.00
1988;DHT22;12775;46.994;15.498;2022-09-13T00:38:55;17.40;90.80
1988;DHT22;12775;46.994;15.498;2022-09-13T00:41:23;17.40;90.80
1988;DHT22;12775;46.994;15.498;2022-09-13T00:43:55;17.40;90.80
1988;DHT22;12775;46.994;15.498;2022-09-13T00:46:33;17.40;90.80
1988;DHT22;12775;46.994;15.498;2022-09-13T00:49:09;17.30;90.70
1988;DHT22;12775;46.994;15.498;2022-09-13T00:51:32;17.30;90.80
1988;DHT22;12775;46.994;15.498;2022-09-13T00:53:59;17.30;90.80
1988;DHT22;12775;46.994;15.498;2022-09-13T00:56:30;17.30;90.80
1988;DHT22;12775;46.994;15.498;2022-09-13T00:58:59;17.30;91.00
1988;DHT22;12775;46.994;15.498;2022-09-13T01:01:27;17.20;90.90
1988;DHT22;12775;46.994;15.498;2022-09-13T01:03:52;17.20;90.60
1988;DHT22;12775;46.994;15.498;2022-09-13T01:06:21;17.10;90.90
1988;DHT22;12775;46.994;15.498;2022-09-13T01:08:48;17.10;90.80
1988;DHT22;12775;46.994;15.498;2022-09-13T01:11:17;17.10;90.60
1988;DHT22;12775;46.994;15.498;2022-09-13T01:13:45;17.10;91.10
1988;DHT22;12775;46.994;15.498;2022-09-13T01:16:12;17.00;90.90
1988;DHT22;12775;46.994;15.498;2022-09-13T01:18:40;17.00;91.00
1988;DHT22;12775;46.994;15.498;2022-09-13T01:27:36;16.90;90.80
1988;DHT22;12775;46.994;15.498;2022-09-13T01:31:58;16.90;90.90
1988;DHT22;12775;46.994;15.498;2022-09-13T01:34:33;16.80;90.80
1988;DHT22;12775;46.994;15.498;2022-09-13T01:37:18;16.80;90.90
1988;DHT22;12775;46.994;15.498;2022-09-13T01:40:06;16.80;90.80
1988;DHT22;12775;46.994;15.498;2022-09-13T01:43:26;16.70;90.90
1988;DHT22;12775;46.994;15.498;2022-09-13T01:45:40;16.70;90.90
1988;DHT22;12775;46.994;15.498;2022-09-13T01:48:14;16.60;91.00
1988;DHT22;12775;46.994;15.498;2022-09-13T01:50:41;16.60;90.90
1988;DHT22;12775;46.994;15.498;2022-09-13T01:53:13;16.60;90.90
1988;DHT22;12775;46.994;15.498;2022-09-13T01:55:43;16.60;90.90
1988;DHT22;12775;46.994;15.498;2022-09-13T01:58:21;16.60;91.00
1988;DHT22;12775;46.994;15.498;2022-09-13T02:00:51;16.60;91.30
1988;DHT22;12775;46.994;15.498;2022-09-13T02:03:18;16.60;91.70
1988;DHT22;12775;46.994;15.498;2022-09-13T02:05:46;16.50;91.40
1988;DHT22;12775;46.994;15.498;2022-09-13T02:08:17;16.50;91.30
1988;DHT22;12775;46.994;15.498;2022-09-13T02:10:45;16.50;91.20
1988;DHT22;12775;46.994;15.498;2022-09-13T02:13:14;16.40;91.10
1988;DHT22;12775;46.994;15.498;2022-09-13T02:15:45;16.40;91.20
1988;DHT22;12775;46.994;15.498;2022-09-13T02:18:14;16.40;91.00
1988;DHT22;12775;46.994;15.498;2022-09-13T02:20:42;16.40;91.00
1988;DHT22;12775;46.994;15.498;2022-09-13T02:23:09;16.40;91.10
1988;DHT22;12775;46.994;15.498;2022-09-13T02:25:35;16.30;91.40
1988;DHT22;12775;46.994;15.498;2022-09-13T02:28:04;16.30;91.30
1988;DHT22;12775;46.994;15.498;2022-09-13T02:30:30;16.30;91.20
1988;DHT22;12775;46.994;15.498;2022-09-13T02:33:00;16.20;91.00
1988;DHT22;12775;46.994;15.498;2022-09-13T02:35:31;16.30;91.10
1988;DHT22;12775;46.994;15.498;2022-09-13T02:38:09;16.20;90.90
1988;DHT22;12775;46.994;15.498;2022-09-13T02:40:39;16.20;90.90
1988;DHT22;12775;46.994;15.498;2022-09-13T02:43:06;16.10;90.80
1988;DHT22;12775;46.994;15.498;2022-09-13T02:45:35;16.10;91.10
1988;DHT22;12775;46.994;15.498;2022-09-13T02:48:02;16.10;91.30
1988;DHT22;12775;46.994;15.498;2022-09-13T02:50:41;16.10;91.50
1988;DHT22;12775;46.994;15.498;2022-09-13T02:53:24;16.10;91.50
1988;DHT22;12775;46.994;15.498;2022-09-13T02:56:00;16.00;91.40
1988;DHT22;12775;46.994;15.498;2022-09-13T02:58:33;16.00;92.20
1988;DHT22;12775;46.994;15.498;2022-09-13T03:00:58;16.00;92.00
1988;DHT22;12775;46.994;15.498;2022-09-13T03:03:25;15.90;91.70
1988;DHT22;12775;46.994;15.498;2022-09-13T03:05:52;15.90;91.70
1988;DHT22;12775;46.994;15.498;2022-09-13T03:08:20;15.90;91.40
1988;DHT22;12775;46.994;15.498;2022-09-13T03:14:19;15.80;91.60
1988;DHT22;12775;46.994;15.498;2022-09-13T03:16:42;15.80;91.60
1988;DHT22;12775;46.994;15.498;2022-09-13T03:19:18;15.80;91.90
1988;DHT22;12775;46.994;15.498;2022-09-13T03:21:51;15.70;91.90
1988;DHT22;12775;46.994;15.498;2022-09-13T03:24:59;15.70;92.30
1988;DHT22;12775;46.994;15.498;2022-09-13T03:27:08;15.70;92.30
1988;DHT22;12775;46.994;15.498;2022-09-13T03:29:39;15.70;92.00
1988;DHT22;12775;46.994;15.498;2022-09-13T03:33:01;15.70;91.90
1988;DHT22;12775;46.994;15.498;2022-09-13T03:35:16;15.60;91.90
1988;DHT22;12775;46.994;15.498;2022-09-13T03:37:54;15.60;91.90
1988;DHT22;12775;46.994;15.498;2022-09-13T03:40:21;15.60;91.70
1988;DHT22;12775;46.994;15.498;2022-09-13T03:42:49;15.50;91.80
1988;DHT22;12775;46.994;15.498;2022-09-13T03:45:16;15.50;91.60
1988;DHT22;12775;46.994;15.498;2022-09-13T03:47:43;15.50;91.60
1988;DHT22;12775;46.994;15.498;2022-09-13T03:50:11;15.50;91.60
1988;DHT22;12775;46.994;15.498;2022-09-13T03:52:39;15.50;91.90
1988;DHT22;12775;46.994;15.498;2022-09-13T03:55:06;15.50;92.50
1988;DHT22;12775;46.994;15.498;2022-09-13T03:57:35;15.50;92.30
1988;DHT22;12775;46.994;15.498;2022-09-13T04:00:03;15.40;92.20
1988;DHT22;12775;46.994;15.498;2022-09-13T04:02:31;15.40;92.00
1988;DHT22;12775;46.994;15.498;2022-09-13T04:04:58;15.40;91.80
1988;DHT22;12775;46.994;15.498;2022-09-13T04:07:25;15.40;91.60
1988;DHT22;12775;46.994;15.498;2022-09-13T04:09:53;15.40;91.70
1988;DHT22;12775;46.994;15.498;2022-09-13T04:12:20;15.40;91.60
1988;DHT22;12775;46.994;15.498;2022-09-13T04:14:47;15.40;91.60
1988;DHT22;12775;46.994;15.498;2022-09-13T04:17:15;15.30;91.90
1988;DHT22;12775;46.994;15.498;2022-09-13T04:19:42;15.30;92.00
1988;DHT22;12775;46.994;15.498;2022-09-13T04:22:10;15.30;92.20
1988;DHT22;12775;46.994;15.498;2022-09-13T04:24:37;15.30;92.00
1988;DHT22;12775;46.994;15.498;2022-09-13T04:27:04;15.30;92.10
1988;DHT22;12775;46.994;15.498;2022-09-13T04:29:31;15.30;92.10
1988;DHT22;12775;46.994;15.498;2022-09-13T04:31:58;15.20;92.00
1988;DHT22;12775;46.994;15.498;2022-09-13T04:34:25;15.20;91.90
1988;DHT22;12775;46.994;15.498;2022-09-13T04:36:52;15.20;91.90
1988;DHT22;12775;46.994;15.498;2022-09-13T04:39:20;15.20;91.70
1988;DHT22;12775;46.994;15.498;2022-09-13T04:41:47;15.20;91.60
1988;DHT22;12775;46.994;15.498;2022-09-13T04:44:15;15.20;91.70
1988;DHT22;12775;46.994;15.498;2022-09-13T04:46:42;15.20;91.70
1988;DHT22;12775;46.994;15.498;2022-09-13T04:49:09;15.20;91.80
1988;DHT22;12775;46.994;15.498;2022-09-13T04:51:36;15.10;91.80
1988;DHT22;12775;46.994;15.498;2022-09-13T04:54:04;15.10;91.80
1988;DHT22;12775;46.994;15.498;2022-09-13T04:56:31;15.10;91.90
1988;DHT22;12775;46.994;15.498;2022-09-13T04:58:58;15.10;92.10
1988;DHT22;12775;46.994;15.498;2022-09-13T05:01:26;15.00;92.10
1988;DHT22;12775;46.994;15.498;2022-09-13T05:03:53;15.00;92.30
1988;DHT22;12775;46.994;15.498;2022-09-13T05:06:22;15.00;92.50
1988;DHT22;12775;46.994;15.498;2022-09-13T05:08:50;15.00;92.80
1988;DHT22;12775;46.994;15.498;2022-09-13T05:11:17;14.90;93.10
1988;DHT22;12775;46.994;15.498;2022-09-13T05:13:47;14.80;93.10
1988;DHT22;12775;46.994;15.498;2022-09-13T05:16:12;14.80;93.50
1988;DHT22;12775;46.994;15.498;2022-09-13T05:18:39;14.80;93.50
1988;DHT22;12775;46.994;15.498;2022-09-13T05:21:07;14.70;93.40
1988;DHT22;12775;46.994;15.498;2022-09-13T05:23:34;14.70;93.60
1988;DHT22;12775;46.994;15.498;2022-09-13T05:26:02;14.70;93.90
1988;DHT22;12775;46.994;15.498;2022-09-13T05:28:30;14.70;94.30
1988;DHT22;12775;46.994;15.498;2022-09-13T05:30:57;14.70;94.80
1988;DHT22;12775;46.994;15.498;2022-09-13T05:33:25;14.80;95.40
1988;DHT22;12775;46.994;15.498;2022-09-13T05:35:52;14.80;95.80
1988;DHT22;12775;46.994;15.498;2022-09-13T05:38:18;14.80;95.90
1988;DHT22;12775;46.994;15.498;2022-09-13T05:40:45;14.90;96.60
1988;DHT22;12775;46.994;15.498;2022-09-13T05:43:12;15.10;98.20
1988;DHT22;12775;46.994;15.498;2022-09-13T05:45:40;15.30;98.70
1988;DHT22;12775;46.994;15.498;2022-09-13T05:48:06;15.20;98.70
1988;DHT22;12775;46.994;15.498;2022-09-13T05:50:36;15.60;99.50
1988;DHT22;12775;46.994;15.498;2022-09-13T05:53:03;15.70;99.70
1988;DHT22;12775;46.994;15.498;2022-09-13T05:55:30;15.90;99.60
1988;DHT22;12775;46.994;15.498;2022-09-13T05:57:58;16.00;99.90
1988;DHT22;12775;46.994;15.498;2022-09-13T06:00:24;16.00;99.90
1988;DHT22;12775;46.994;15.498;2022-09-13T06:02:52;16.40;99.60
1988;DHT22;12775;46.994;15.498;2022-09-13T06:05:19;16.50;99.90
1988;DHT22;12775;46.994;15.498;2022-09-13T06:07:46;16.60;99.90
1988;DHT22;12775;46.994;15.498;2022-09-13T06:10:14;16.80;99.90
1988;DHT22;12775;46.994;15.498;2022-09-13T06:12:41;16.90;99.90
1988;DHT22;12775;46.994;15.498;2022-09-13T06:15:08;17.00;99.90
1988;DHT22;12775;46.994;15.498;2022-09-13T06:17:36;17.20;99.90
1988;DHT22;12775;46.994;15.498;2022-09-13T06:20:05;17.30;99.90
1988;DHT22;12775;46.994;15.498;2022-09-13T06:22:32;17.40;99.90
1988;DHT22;12775;46.994;15.498;2022-09-13T06:25:00;17.50;99.90
1988;DHT22;12775;46.994;15.498;2022-09-13T06:27:28;17.60;99.90
1988;DHT22;12775;46.994;15.498;2022-09-13T06:29:55;17.80;99.90
1988;DHT22;12775;46.994;15.498;2022-09-13T06:32:23;17.90;99.90
1988;DHT22;12775;46.994;15.498;2022-09-13T06:34:51;18.00;99.90
1988;DHT22;12775;46.994;15.498;2022-09-13T06:37:18;18.20;99.90
1988;DHT22;12775;46.994;15.498;2022-09-13T06:39:45;18.40;99.90
1988;DHT22;12775;46.994;15.498;2022-09-13T06:42:13;18.50;99.90
1988;DHT22;12775;46.994;15.498;2022-09-13T06:44:40;18.70;99.90
1988;DHT22;12775;46.994;15.498;2022-09-13T06:47:08;18.80;99.90
1988;DHT22;12775;46.994;15.498;2022-09-13T06:49:35;19.00;99.90
1988;DHT22;12775;46.994;15.498;2022-09-13T06:52:02;19.00;99.90
1988;DHT22;12775;46.994;15.498;2022-09-13T06:54:29;19.30;99.90
1988;DHT22;12775;46.994;15.498;2022-09-13T06:56:56;19.40;99.90
1988;DHT22;12775;46.994;15.498;2022-09-13T06:59:24;19.60;99.90
1988;DHT22;12775;46.994;15.498;2022-09-13T07:01:51;19.50;99.80
1988;DHT22;12775;46.994;15.498;2022-09-13T07:04:18;19.80;99.80
1988;DHT22;12775;46.994;15.498;2022-09-13T07:06:48;19.90;99.90
1988;DHT22;12775;46.994;15.498;2022-09-13T07:09:17;19.90;96.90
1988;DHT22;12775;46.994;15.498;2022-09-13T07:11:44;20.00;99.40
1988;DHT22;12775;46.994;15.498;2022-09-13T07:14:14;20.10;99.90
1988;DHT22;12775;46.994;15.498;2022-09-13T07:16:41;20.20;98.90
1988;DHT22;12775;46.994;15.498;2022-09-13T07:19:12;20.30;99.90
1988;DHT22;12775;46.994;15.498;2022-09-13T07:21:39;20.40;99.20
1988;DHT22;12775;46.994;15.498;2022-09-13T07:24:06;20.50;99.60
1988;DHT22;12775;46.994;15.498;2022-09-13T07:26:33;20.60;99.70
1988;DHT22;12775;46.994;15.498;2022-09-13T07:29:02;20.80;99.00
1988;DHT22;12775;46.994;15.498;2022-09-13T07:31:30;20.90;98.50
1988;DHT22;12775;46.994;15.498;2022-09-13T07:33:57;21.10;99.50
1988;DHT22;12775;46.994;15.498;2022-09-13T07:36:25;21.20;98.30
1988;DHT22;12775;46.994;15.498;2022-09-13T07:38:52;21.40;99.90
1988;DHT22;12775;46.994;15.498;2022-09-13T07:41:20;21.60;99.90
1988;DHT22;12775;46.994;15.498;2022-09-13T07:43:46;21.70;99.90
1988;DHT22;12775;46.994;15.498;2022-09-13T07:46:18;21.90;96.80
1988;DHT22;12775;46.994;15.498;2022-09-13T07:48:44;22.00;97.90
1988;DHT22;12775;46.994;15.498;2022-09-13T07:51:12;22.20;99.40
1988;DHT22;12775;46.994;15.498;2022-09-13T07:53:39;22.40;99.80
1988;DHT22;12775;46.994;15.498;2022-09-13T07:56:08;22.50;99.80
1988;DHT22;12775;46.994;15.498;2022-09-13T07:58:35;22.70;97.60
1988;DHT22;12775;46.994;15.498;2022-09-13T08:01:06;22.90;96.50
1988;DHT22;12775;46.994;15.498;2022-09-13T08:03:33;23.10;95.60
1988;DHT22;12775;46.994;15.498;2022-09-13T08:06:00;23.20;94.80
1988;DHT22;12775;46.994;15.498;2022-09-13T08:08:28;23.20;91.70
1988;DHT22;12775;46.994;15.498;2022-09-13T08:10:55;23.10;88.10
1988;DHT22;12775;46.994;15.498;2022-09-13T08:13:22;23.20;91.30
1988;DHT22;12775;46.994;15.498;2022-09-13T08:15:49;23.40;93.20
1988;DHT22;12775;46.994;15.498;2022-09-13T08:18:17;23.60;95.60
1988;DHT22;12775;46.994;15.498;2022-09-13T08:20:44;23.60;94.70
1988;DHT22;12775;46.994;15.498;2022-09-13T08:23:13;23.70;94.50
1988;DHT22;12775;46.994;15.498;2022-09-13T08:25:39;23.70;94.60
1988;DHT22;12775;46.994;15.498;2022-09-13T08:28:07;23.80;92.90
1988;DHT22;12775;46.994;15.498;2022-09-13T08:30:34;23.90;92.80
1988;DHT22;12775;46.994;15.498;2022-09-13T08:33:01;23.80;92.80
1988;DHT22;12775;46.994;15.498;2022-09-13T08:35:28;23.90;90.10
1988;DHT22;12775;46.994;15.498;2022-09-13T08:37:55;23.90;91.80
1988;DHT22;12775;46.994;15.498;2022-09-13T08:40:23;24.00;91.90
1988;DHT22;12775;46.994;15.498;2022-09-13T08:42:52;24.00;87.00
1988;DHT22;12775;46.994;15.498;2022-09-13T08:45:17;24.10;90.70
1988;DHT22;12775;46.994;15.498;2022-09-13T08:47:46;23.90;90.70
1988;DHT22;12775;46.994;15.498;2022-09-13T08:50:14;23.80;90.00
1988;DHT22;12775;46.994;15.498;2022-09-13T08:52:48;24.00;92.20
1988;DHT22;12775;46.994;15.498;2022-09-13T08:55:48;24.10;91.10
1988;DHT22;12775;46.994;15.498;2022-09-13T09:00:48;24.50;93.80
1988;DHT22;12775;46.994;15.498;2022-09-13T09:03:24;24.50;93.40
1988;DHT22;12775;46.994;15.498;2022-09-13T09:05:49;24.50;94.60
1988;DHT22;12775;46.994;15.498;2022-09-13T09:08:21;24.70;93.10
1988;DHT22;12775;46.994;15.498;2022-09-13T09:10:45;24.80;92.60
1988;DHT22;12775;46.994;15.498;2022-09-13T09:13:18;24.90;93.10
1988;DHT22;12775;46.994;15.498;2022-09-13T09:15:43;24.90;91.60
1988;DHT22;12775;46.994;15.498;2022-09-13T09:18:24;24.90;91.60
1988;DHT22;12775;46.994;15.498;2022-09-13T09:20:52;24.90;92.80
1988;DHT22;12775;46.994;15.498;2022-09-13T09:23:20;25.00;87.50
1988;DHT22;12775;46.994;15.498;2022-09-13T09:25:46;25.30;91.90
1988;DHT22;12775;46.994;15.498;2022-09-13T09:28:14;25.40;93.00
1988;DHT22;12775;46.994;15.498;2022-09-13T09:30:48;25.30;93.00
1988;DHT22;12775;46.994;15.498;2022-09-13T09:33:22;25.50;92.60
1988;DHT22;12775;46.994;15.498;2022-09-13T09:35:59;25.50;92.50
1988;DHT22;12775;46.994;15.498;2022-09-13T09:38:32;25.80;92.60
1988;DHT22;12775;46.994;15.498;2022-09-13T09:40:59;25.70;91.40
1988;DHT22;12775;46.994;15.498;2022-09-13T09:43:29;25.70;86.10
1988;DHT22;12775;46.994;15.498;2022-09-13T09:45:54;25.80;86.60
1988;DHT22;12775;46.994;15.498;2022-09-13T09:48:27;25.70;90.30
1988;DHT22;12775;46.994;15.498;2022-09-13T09:50:50;25.80;91.00
1988;DHT22;12775;46.994;15.498;2022-09-13T09:53:26;25.70;91.00
1988;DHT22;12775;46.994;15.498;2022-09-13T09:55:54;25.90;89.00
1988;DHT22;12775;46.994;15.498;2022-09-13T09:58:35;25.80;91.00
1988;DHT22;12775;46.994;15.498;2022-09-13T10:00:51;25.90;90.10
1988;DHT22;12775;46.994;15.498;2022-09-13T10:03:18;26.00;85.60
1988;DHT22;12775;46.994;15.498;2022-09-13T10:05:45;26.10;89.30
1988;DHT22;12775;46.994;15.498;2022-09-13T10:08:29;26.20;85.90
1988;DHT22;12775;46.994;15.498;2022-09-13T10:10:58;26.20;85.90
1988;DHT22;12775;46.994;15.498;2022-09-13T10:13:26;26.40;88.00
1988;DHT22;12775;46.994;15.498;2022-09-13T10:15:56;26.50;86.80
1988;DHT22;12775;46.994;15.498;2022-09-13T10:18:22;26.50;86.80
1988;DHT22;12775;46.994;15.498;2022-09-13T10:21:00;26.70;89.00
1988;DHT22;12775;46.994;15.498;2022-09-13T10:23:26;26.90;88.10
1988;DHT22;12775;46.994;15.498;2022-09-13T10:26:04;26.90;88.20
1988;DHT22;12775;46.994;15.498;2022-09-13T10:28:31;27.00;86.00
1988;DHT22;12775;46.994;15.498;2022-09-13T10:31:00;27.00;81.70
1988;DHT22;12775;46.994;15.498;2022-09-13T10:33:28;27.20;88.20
1988;DHT22;12775;46.994;15.498;2022-09-13T10:35:56;27.30;87.30
1988;DHT22;12775;46.994;15.498;2022-09-13T10:38:34;27.40;86.30
1988;DHT22;12775;46.994;15.498;2022-09-13T10:41:01;27.50;81.70
1988;DHT22;12775;46.994;15.498;2022-09-13T10:43:28;27.60;84.20
1988;DHT22;12775;46.994;15.498;2022-09-13T10:45:55;27.60;80.70
1988;DHT22;12775;46.994;15.498;2022-09-13T10:48:22;27.40;78.80
1988;DHT22;12775;46.994;15.498;2022-09-13T10:51:01;27.20;71.20
1988;DHT22;12775;46.994;15.498;2022-09-13T10:53:31;27.20;71.70
1988;DHT22;12775;46.994;15.498;2022-09-13T10:55:56;26.90;74.60
1988;DHT22;12775;46.994;15.498;2022-09-13T11:01:11;27.10;78.20
1988;DHT22;12775;46.994;15.498;2022-09-13T11:03:52;27.20;79.30
1988;DHT22;12775;46.994;15.498;2022-09-13T11:06:25;27.20;83.20
1988;DHT22;12775;46.994;15.498;2022-09-13T11:09:22;27.40;83.10
1988;DHT22;12775;46.994;15.498;2022-09-13T11:11:55;27.30;84.00
1988;DHT22;12775;46.994;15.498;2022-09-13T11:14:33;27.50;82.20
1988;DHT22;12775;46.994;15.498;2022-09-13T11:19:55;27.90;80.30
1988;DHT22;12775;46.994;15.498;2022-09-13T11:22:29;27.90;77.60
1988;DHT22;12775;46.994;15.498;2022-09-13T11:25:28;28.10;80.90
1988;DHT22;12775;46.994;15.498;2022-09-13T11:28:02;28.30;82.00
1988;DHT22;12775;46.994;15.498;2022-09-13T11:30:30;28.20;81.90
1988;DHT22;12775;46.994;15.498;2022-09-13T11:33:11;28.00;72.50
1988;DHT22;12775;46.994;15.498;2022-09-13T11:35:46;28.00;72.40
1988;DHT22;12775;46.994;15.498;2022-09-13T11:46:22;28.50;81.40
1988;DHT22;12775;46.994;15.498;2022-09-13T11:49:08;28.90;81.60
1988;DHT22;12775;46.994;15.498;2022-09-13T11:52:02;29.10;81.40
1988;DHT22;12775;46.994;15.498;2022-09-13T11:54:44;29.30;81.10
1988;DHT22;12775;46.994;15.498;2022-09-13T11:57:10;29.40;79.30
1988;DHT22;12775;46.994;15.498;2022-09-13T11:59:39;29.50;79.40
1988;DHT22;12775;46.994;15.498;2022-09-13T12:02:17;29.70;79.60
1988;DHT22;12775;46.994;15.498;2022-09-13T12:07:30;29.80;76.80
1988;DHT22;12775;46.994;15.498;2022-09-13T12:09:59;29.90;72.80
1988;DHT22;12775;46.994;15.498;2022-09-13T12:12:28;29.90;76.60
1988;DHT22;12775;46.994;15.498;2022-09-13T12:14:56;30.00;77.10
1988;DHT22;12775;46.994;15.498;2022-09-13T12:17:24;30.00;76.30
1988;DHT22;12775;46.994;15.498;2022-09-13T12:19:50;30.00;75.70
1988;DHT22;12775;46.994;15.498;2022-09-13T12:22:17;30.00;71.20
1988;DHT22;12775;46.994;15.498;2022-09-13T12:24:46;29.90;74.90
1988;DHT22;12775;46.994;15.498;2022-09-13T12:27:20;29.90;76.20
1988;DHT22;12775;46.994;15.498;2022-09-13T12:29:47;29.90;71.40
1988;DHT22;12775;46.994;15.498;2022-09-13T12:32:13;30.00;74.20
1988;DHT22;12775;46.994;15.498;2022-09-13T12:34:44;30.10;75.30
1988;DHT22;12775;46.994;15.498;2022-09-13T12:37:21;29.50;65.90
1988;DHT22;12775;46.994;15.498;2022-09-13T12:40:13;29.30;68.70
1988;DHT22;12775;46.994;15.498;2022-09-13T12:42:50;29.30;68.80
1988;DHT22;12775;46.994;15.498;2022-09-13T12:45:29;29.30;68.70
1988;DHT22;12775;46.994;15.498;2022-09-13T12:49:09;29.20;70.40
1988;DHT22;12775;46.994;15.498;2022-09-13T12:50:51;29.30;75.00
1988;DHT22;12775;46.994;15.498;2022-09-13T12:55:55;29.40;70.20
1988;DHT22;12775;46.994;15.498;2022-09-13T12:58:35;29.20;67.50
1988;DHT22;12775;46.994;15.498;2022-09-13T13:01:16;29.20;68.10
1988;DHT22;12775;46.994;15.498;2022-09-13T13:03:54;29.20;69.00
1988;DHT22;12775;46.994;15.498;2022-09-13T13:06:24;29.20;69.00
1988;DHT22;12775;46.994;15.498;2022-09-13T13:08:50;29.20;73.70
1988;DHT22;12775;46.994;15.498;2022-09-13T13:11:17;29.40;68.90
1988;DHT22;12775;46.994;15.498;2022-09-13T13:13:45;29.30;68.20
1988;DHT22;12775;46.994;15.498;2022-09-13T13:16:28;29.10;67.90
1988;DHT22;12775;46.994;15.498;2022-09-13T13:18:56;28.70;68.80
1988;DHT22;12775;46.994;15.498;2022-09-13T13:21:29;28.70;68.60
1988;DHT22;12775;46.994;15.498;2022-09-13T13:29:25;28.40;71.50
1988;DHT22;12775;46.994;15.498;2022-09-13T13:32:08;28.10;67.80
1988;DHT22;12775;46.994;15.498;2022-09-13T13:34:43;28.10;71.60
1988;DHT22;12775;46.994;15.498;2022-09-13T13:37:26;28.00;71.50
1988;DHT22;12775;46.994;15.498;2022-09-13T13:42:32;28.10;72.00
1988;DHT22;12775;46.994;15.498;2022-09-13T13:45:15;28.10;72.10
1988;DHT22;12775;46.994;15.498;2022-09-13T13:47:41;28.30;74.60
1988;DHT22;12775;46.994;15.498;2022-09-13T13:50:13;28.40;77.10
1988;DHT22;12775;46.994;15.498;2022-09-13T13:52:53;28.50;77.00
1988;DHT22;12775;46.994;15.498;2022-09-13T13:55:27;28.60;78.20
1988;DHT22;12775;46.994;15.498;2022-09-13T13:57:51;28.50;78.00
1988;DHT22;12775;46.994;15.498;2022-09-13T14:00:19;28.60;77.90
1988;DHT22;12775;46.994;15.498;2022-09-13T14:03:22;28.70;71.80
1988;DHT22;12775;46.994;15.498;2022-09-13T14:05:50;28.70;70.60
1988;DHT22;12775;46.994;15.498;2022-09-13T14:08:29;28.70;73.40
1988;DHT22;12775;46.994;15.498;2022-09-13T14:13:58;28.50;70.50
1988;DHT22;12775;46.994;15.498;2022-09-13T14:16:31;28.40;71.60
1988;DHT22;12775;46.994;15.498;2022-09-13T14:19:33;28.20;71.50
1988;DHT22;12775;46.994;15.498;2022-09-13T14:21:41;28.10;72.60
1988;DHT22;12775;46.994;15.498;2022-09-13T14:24:24;28.10;74.90
1988;DHT22;12775;46.994;15.498;2022-09-13T14:26:52;27.90;70.90
1988;DHT22;12775;46.994;15.498;2022-09-13T14:29:19;28.00;72.80
1988;DHT22;12775;46.994;15.498;2022-09-13T14:31:47;28.00;71.90
1988;DHT22;12775;46.994;15.498;2022-09-13T14:34:21;27.90;72.90
1988;DHT22;12775;46.994;15.498;2022-09-13T14:36:51;27.90;72.90
1988;DHT22;12775;46.994;15.498;2022-09-13T14:39:17;28.10;73.80
1988;DHT22;12775;46.994;15.498;2022-09-13T14:41:45;28.00;70.70
1988;DHT22;12775;46.994;15.498;2022-09-13T14:44:19;28.10;70.10
1988;DHT22;12775;46.994;15.498;2022-09-13T14:46:44;28.10;70.10
1988;DHT22;12775;46.994;15.498;2022-09-13T14:49:14;28.20;75.60
1988;DHT22;12775;46.994;15.498;2022-09-13T14:51:42;28.30;79.20
1988;DHT22;12775;46.994;15.498;2022-09-13T14:54:10;28.40;78.70
1988;DHT22;12775;46.994;15.498;2022-09-13T14:56:36;28.40;78.80
1988;DHT22;12775;46.994;15.498;2022-09-13T14:59:04;28.60;78.30
1988;DHT22;12775;46.994;15.498;2022-09-13T15:01:31;28.70;80.70
1988;DHT22;12775;46.994;15.498;2022-09-13T15:03:58;28.70;72.90
1988;DHT22;12775;46.994;15.498;2022-09-13T15:06:27;28.70;72.40
1988;DHT22;12775;46.994;15.498;2022-09-13T15:08:59;28.50;70.00
1988;DHT22;12775;46.994;15.498;2022-09-13T15:11:29;28.50;73.70
1988;DHT22;12775;46.994;15.498;2022-09-13T15:14:24;28.50;75.40
1988;DHT22;12775;46.994;15.498;2022-09-13T15:17:07;28.50;78.30
1988;DHT22;12775;46.994;15.498;2022-09-13T15:20:01;28.70;79.70
1988;DHT22;12775;46.994;15.498;2022-09-13T15:22:24;28.70;75.90
1988;DHT22;12775;46.994;15.498;2022-09-13T15:24:51;28.60;75.70
1988;DHT22;12775;46.994;15.498;2022-09-13T15:27:25;28.70;75.30
1988;DHT22;12775;46.994;15.498;2022-09-13T15:29:54;28.70;72.00
1988;DHT22;12775;46.994;15.498;2022-09-13T15:32:23;28.60;73.20
1988;DHT22;12775;46.994;15.498;2022-09-13T15:34:49;28.60;71.70
1988;DHT22;12775;46.994;15.498;2022-09-13T15:37:16;28.40;70.90
1988;DHT22;12775;46.994;15.498;2022-09-13T15:40:01;28.30;71.70
1988;DHT22;12775;46.994;15.498;2022-09-13T15:42:21;28.30;70.80
1988;DHT22;12775;46.994;15.498;2022-09-13T15:44:48;28.30;70.40
1988;DHT22;12775;46.994;15.498;2022-09-13T15:47:16;28.00;70.80
1988;DHT22;12775;46.994;15.498;2022-09-13T15:49:47;28.10;71.70
1988;DHT22;12775;46.994;15.498;2022-09-13T15:52:13;27.90;69.70
1988;DHT22;12775;46.994;15.498;2022-09-13T15:54:41;28.10;74.60
1988;DHT22;12775;46.994;15.498;2022-09-13T15:57:09;28.10;74.70
1988;DHT22;12775;46.994;15.498;2022-09-13T15:59:35;28.10;74.10
1988;DHT22;12775;46.994;15.498;2022-09-13T16:02:12;28.20;72.20
1988;DHT22;12775;46.994;15.498;2022-09-13T16:04:30;28.00;71.30
1988;DHT22;12775;46.994;15.498;2022-09-13T16:06:57;27.70;71.30
1988;DHT22;12775;46.994;15.498;2022-09-13T16:09:25;27.50;70.40
1988;DHT22;12775;46.994;15.498;2022-09-13T16:11:52;27.50;72.10
1988;DHT22;12775;46.994;15.498;2022-09-13T16:14:19;27.50;72.20
1988;DHT22;12775;46.994;15.498;2022-09-13T16:16:47;27.50;72.90
1988;DHT22;12775;46.994;15.498;2022-09-13T16:19:15;27.50;73.00
1988;DHT22;12775;46.994;15.498;2022-09-13T16:21:42;27.50;73.50
1988;DHT22;12775;46.994;15.498;2022-09-13T16:24:09;27.50;74.00
1988;DHT22;12775;46.994;15.498;2022-09-13T16:26:36;27.50;73.40
1988;DHT22;12775;46.994;15.498;2022-09-13T16:29:04;27.50;73.60
1988;DHT22;12775;46.994;15.498;2022-09-13T16:31:31;27.50;74.00
1988;DHT22;12775;46.994;15.498;2022-09-13T16:33:58;27.50;73.90